KLKV/LKV METAR and TAF weather

Enter ICAO airport designator
Station Type Date Time Source
KLKV METAR 2019/04/20 22:53 UTC NOAA

KLKV 202253Z AUTO 02010KT 10SM BKN022 09/05 A2991 RMK AO2 RAB28E38 SLP120 P0002 T00940050


Station Type Date Time Source
KLKV Decoded METAR 2019/04/20 22:53 UTC NOAA

Lakeview, Lake County Airport, OR, United States (KLKV) 42-10N 120-24W
Apr 20, 2019 - 06:53 PM EDT / 2019.04.20 2253 UTC
Wind: from the NNE (020 degrees) at 12 MPH (10 KT):0
Visibility: 10 mile(s):0
Sky conditions: mostly cloudy
Precipitation last hour: 0.02 inches
Temperature: 48.9 F (9.4 C)
Dew Point: 41.0 F (5.0 C)
Relative Humidity: 73%
Pressure (altimeter): 29.91 in. Hg (1012 hPa)
ob: KLKV 202253Z AUTO 02010KT 10SM BKN022 09/05 A2991 RMK AO2 RAB28E38 SLP120 P0002 T00940050
cycle: 23

Station Type Date Time Source
KLKV TAF UTC NOAA

Error!

Example: see airport list